createdAt,value
2022-10-16T00:01:51.590Z,4.90
2022-10-16T00:04:20.617Z,5.10
2022-10-16T00:06:49.620Z,4.83
2022-10-16T00:09:18.658Z,4.63
2022-10-16T00:11:47.666Z,4.40
2022-10-16T00:14:18.589Z,4.33
2022-10-16T00:16:47.565Z,4.93
2022-10-16T00:19:16.750Z,4.63
2022-10-16T00:21:45.713Z,4.20
2022-10-16T00:24:14.683Z,4.40
2022-10-16T00:26:44.249Z,4.57
2022-10-16T00:29:13.439Z,4.10
2022-10-16T00:31:43.723Z,3.83
2022-10-16T00:34:12.720Z,4.00
2022-10-16T00:36:41.683Z,4.27
2022-10-16T00:39:10.702Z,3.80
2022-10-16T00:41:39.649Z,3.20
2022-10-16T00:44:38.413Z,2.87
2022-10-16T00:47:11.574Z,2.93
2022-10-16T00:49:40.702Z,3.23
2022-10-16T00:52:09.828Z,2.37
2022-10-16T00:54:39.043Z,2.37
2022-10-16T00:57:09.041Z,2.00
2022-10-16T00:59:40.759Z,2.30
2022-10-16T01:02:14.089Z,1.90
2022-10-16T01:04:47.895Z,2.10
2022-10-16T01:07:26.698Z,1.80
2022-10-16T01:10:04.970Z,1.57
2022-10-16T01:12:45.486Z,2.23
2022-10-16T01:15:24.977Z,1.37
2022-10-16T01:18:01.892Z,1.30
2022-10-16T01:20:35.088Z,2.30
2022-10-16T01:23:29.554Z,1.20
2022-10-16T01:26:12.709Z,1.50
2022-10-16T01:28:50.091Z,1.30
2022-10-16T01:31:24.455Z,1.37
2022-10-16T01:33:58.769Z,1.30
2022-10-16T01:36:32.997Z,1.33
2022-10-16T01:39:04.737Z,1.60
2022-10-16T01:41:37.284Z,1.43
2022-10-16T01:44:11.674Z,1.50
2022-10-16T01:46:44.409Z,1.57
2022-10-16T01:49:14.830Z,1.10
2022-10-16T01:51:47.143Z,1.30
2022-10-16T01:54:18.456Z,1.70
2022-10-16T01:56:50.651Z,1.17
2022-10-16T01:59:24.843Z,1.30
2022-10-16T02:02:00.485Z,1.37
2022-10-16T02:04:33.297Z,1.00
2022-10-16T02:07:02.911Z,1.07
2022-10-16T02:09:34.203Z,1.00
2022-10-16T02:12:08.346Z,1.20
2022-10-16T02:14:40.187Z,1.43
2022-10-16T02:17:14.180Z,1.37
2022-10-16T02:19:44.830Z,1.10
2022-10-16T02:22:20.286Z,1.10
2022-10-16T02:24:55.877Z,1.50
2022-10-16T02:27:34.129Z,1.00
2022-10-16T02:30:09.600Z,1.10
2022-10-16T02:32:41.978Z,1.30
2022-10-16T02:35:12.155Z,1.60
2022-10-16T02:37:42.550Z,1.60
2022-10-16T02:40:12.414Z,1.30
2022-10-16T02:42:42.400Z,1.53
2022-10-16T02:45:13.947Z,1.20
2022-10-16T02:47:42.894Z,1.00
2022-10-16T02:50:12.254Z,1.30
2022-10-16T02:52:41.326Z,1.00
2022-10-16T02:55:10.551Z,1.27
2022-10-16T02:57:41.228Z,1.20
2022-10-16T03:00:14.367Z,1.10
2022-10-16T03:02:43.715Z,1.30
2022-10-16T03:05:13.174Z,1.20
2022-10-16T03:07:42.541Z,1.30
2022-10-16T03:10:11.570Z,1.03
2022-10-16T03:12:40.469Z,1.17
2022-10-16T03:15:10.719Z,0.90
2022-10-16T03:17:41.015Z,1.40
2022-10-16T03:20:10.730Z,1.50
2022-10-16T03:22:39.710Z,1.00
2022-10-16T03:25:09.509Z,1.13
2022-10-16T03:27:38.555Z,1.03
2022-10-16T03:30:08.573Z,0.83
2022-10-16T03:32:37.585Z,1.10
2022-10-16T03:35:08.895Z,1.17
2022-10-16T03:37:38.144Z,1.00
2022-10-16T03:40:08.315Z,1.27
2022-10-16T03:42:37.651Z,1.03
2022-10-16T03:45:07.624Z,0.90
2022-10-16T03:47:36.553Z,1.20
2022-10-16T03:50:08.483Z,1.50
2022-10-16T03:52:37.466Z,1.10
2022-10-16T03:55:07.267Z,1.33
2022-10-16T03:57:36.258Z,0.90
2022-10-16T04:00:05.838Z,0.90
2022-10-16T04:02:41.829Z,0.80
2022-10-16T04:05:12.409Z,1.00
2022-10-16T04:07:41.348Z,0.80
2022-10-16T04:10:11.071Z,0.87
2022-10-16T04:12:39.974Z,0.90
2022-10-16T04:15:09.880Z,1.00
2022-10-16T04:17:38.812Z,0.90
2022-10-16T04:20:08.729Z,1.10
2022-10-16T04:22:38.978Z,0.90
2022-10-16T04:25:08.588Z,1.30
2022-10-16T04:27:39.978Z,0.90
2022-10-16T04:30:11.949Z,0.90
2022-10-16T04:32:40.832Z,0.90
2022-10-16T04:35:10.909Z,1.30
2022-10-16T04:37:41.228Z,0.90
2022-10-16T04:40:10.742Z,0.83
2022-10-16T04:42:39.862Z,0.90
2022-10-16T04:45:12.093Z,0.80
2022-10-16T04:47:43.799Z,1.40
2022-10-16T04:50:12.731Z,1.13
2022-10-16T04:52:42.991Z,0.77
2022-10-16T04:55:11.917Z,0.90
2022-10-16T04:57:40.827Z,0.80
2022-10-16T05:00:11.184Z,0.80
2022-10-16T05:02:40.134Z,0.97
2022-10-16T05:05:09.691Z,0.80
2022-10-16T05:07:38.612Z,1.17
2022-10-16T05:10:09.413Z,1.00
2022-10-16T05:12:38.354Z,0.93
2022-10-16T05:15:08.498Z,0.97
2022-10-16T05:17:41.158Z,1.00
2022-10-16T05:20:13.502Z,0.90
2022-10-16T05:22:42.420Z,1.13
2022-10-16T05:25:13.072Z,1.23
2022-10-16T05:27:41.993Z,1.43
2022-10-16T05:30:12.526Z,1.37
2022-10-16T05:32:41.769Z,1.77
2022-10-16T05:35:12.679Z,1.20
2022-10-16T05:37:41.898Z,1.50
2022-10-16T05:40:13.859Z,1.33
2022-10-16T05:42:43.159Z,1.53
2022-10-16T05:45:13.451Z,1.17
2022-10-16T05:47:42.724Z,1.20
2022-10-16T05:50:11.651Z,1.17
2022-10-16T05:52:40.622Z,1.13
2022-10-16T05:55:10.462Z,1.47
2022-10-16T05:57:40.721Z,1.30
2022-10-16T06:00:11.023Z,1.30
2022-10-16T06:02:43.007Z,1.77
2022-10-16T06:05:11.990Z,1.20
2022-10-16T06:07:40.864Z,1.50
2022-10-16T06:10:10.787Z,1.23
2022-10-16T06:12:41.036Z,1.40
2022-10-16T06:15:10.655Z,1.60
2022-10-16T06:17:39.590Z,1.30
2022-10-16T06:20:09.193Z,1.10
2022-10-16T06:22:38.065Z,1.10
2022-10-16T06:25:07.766Z,1.20
2022-10-16T06:27:36.686Z,1.10
2022-10-16T06:30:08.457Z,0.90
2022-10-16T06:32:37.378Z,1.07
2022-10-16T06:35:06.779Z,1.20
2022-10-16T06:37:35.671Z,1.20
2022-10-16T06:40:05.285Z,1.07
2022-10-16T06:42:34.227Z,1.07
2022-10-16T06:45:03.162Z,1.20
2022-10-16T06:47:33.424Z,1.77
2022-10-16T06:50:02.485Z,1.37
2022-10-16T06:52:31.721Z,1.40
2022-10-16T06:55:00.744Z,1.10
2022-10-16T06:57:29.639Z,1.33
2022-10-16T06:59:58.566Z,1.50
2022-10-16T07:02:27.771Z,1.30
2022-10-16T07:04:58.788Z,1.43
2022-10-16T07:07:27.675Z,1.40
2022-10-16T07:09:56.770Z,1.50
2022-10-16T07:12:25.890Z,1.40
2022-10-16T07:14:55.714Z,1.47
2022-10-16T07:17:24.685Z,1.40
2022-10-16T07:19:54.321Z,1.60
2022-10-16T07:22:24.859Z,1.50
2022-10-16T07:24:53.929Z,1.43
2022-10-16T07:27:24.980Z,1.20
2022-10-16T07:29:53.971Z,1.17
2022-10-16T07:32:23.113Z,1.58
2022-10-16T07:34:52.242Z,1.27
2022-10-16T07:37:21.289Z,1.25
2022-10-16T07:39:51.554Z,1.23
2022-10-16T07:42:21.043Z,1.30
2022-10-16T07:44:49.936Z,1.37
2022-10-16T07:47:18.891Z,1.17
2022-10-16T07:49:47.778Z,1.10
2022-10-16T07:52:16.726Z,1.42
2022-10-16T07:54:45.701Z,1.27
2022-10-16T07:57:20.150Z,1.30
2022-10-16T07:59:49.159Z,1.33
2022-10-16T08:02:18.158Z,1.10
2022-10-16T08:04:49.290Z,1.23
2022-10-16T08:07:18.325Z,1.25
2022-10-16T08:09:50.630Z,1.45
2022-10-16T08:12:20.963Z,1.30
2022-10-16T08:14:49.936Z,1.20
2022-10-16T08:17:19.005Z,1.60
2022-10-16T08:19:48.360Z,1.50
2022-10-16T08:22:17.378Z,1.40
2022-10-16T08:24:46.395Z,1.40
2022-10-16T08:27:15.504Z,1.88
2022-10-16T08:29:45.808Z,1.63
2022-10-16T08:32:14.904Z,1.30
2022-10-16T08:34:43.842Z,1.27
2022-10-16T08:37:14.677Z,1.30
2022-10-16T08:39:43.620Z,1.65
2022-10-16T08:42:36.573Z,1.20
2022-10-16T08:45:22.870Z,1.33
2022-10-16T08:48:02.535Z,1.33
2022-10-16T08:50:34.815Z,1.60
2022-10-16T08:53:05.916Z,1.48
2022-10-16T08:55:40.479Z,1.63
2022-10-16T08:58:14.990Z,1.73
2022-10-16T09:00:48.666Z,1.38
2022-10-16T09:03:29.576Z,1.40
2022-10-16T09:06:28.747Z,1.23
2022-10-16T09:09:10.607Z,1.13
2022-10-16T09:11:51.049Z,1.20
2022-10-16T09:14:42.539Z,0.88
2022-10-16T09:17:45.189Z,1.02
2022-10-16T09:20:28.979Z,1.20
2022-10-16T09:23:12.469Z,1.15
2022-10-16T09:25:44.858Z,0.90
2022-10-16T09:28:13.982Z,1.17
2022-10-16T09:30:42.993Z,1.17
2022-10-16T09:33:15.028Z,0.70
2022-10-16T09:35:46.185Z,0.82
2022-10-16T09:38:25.187Z,1.13
2022-10-16T09:40:59.378Z,0.80
2022-10-16T09:43:41.103Z,0.80
2022-10-16T09:46:23.066Z,0.55
2022-10-16T09:48:55.639Z,0.73
2022-10-16T09:51:27.268Z,0.77
2022-10-16T09:54:02.540Z,0.95
2022-10-16T09:56:34.265Z,0.88
2022-10-16T09:59:05.332Z,0.90
2022-10-16T10:01:40.541Z,0.77
2022-10-16T10:04:12.197Z,0.93
2022-10-16T10:06:47.355Z,0.70
2022-10-16T10:09:23.194Z,0.98
2022-10-16T10:11:57.173Z,1.35
2022-10-16T10:14:30.016Z,0.73
2022-10-16T10:17:15.065Z,1.15
2022-10-16T10:19:52.544Z,1.10
2022-10-16T10:22:32.243Z,0.70
2022-10-16T10:25:26.566Z,0.90
2022-10-16T10:28:10.110Z,0.90
2022-10-16T10:30:44.817Z,0.60
2022-10-16T10:33:26.834Z,0.70
2022-10-16T10:36:09.598Z,0.93
2022-10-16T10:38:45.766Z,0.80
2022-10-16T10:41:43.147Z,0.77
2022-10-16T10:44:20.484Z,0.43
2022-10-16T10:46:56.932Z,0.60
2022-10-16T10:49:43.288Z,0.45
2022-10-16T10:52:37.540Z,1.00
2022-10-16T10:55:21.330Z,0.52
2022-10-16T10:58:07.861Z,0.88
2022-10-16T11:00:50.698Z,0.73
2022-10-16T11:03:42.883Z,0.80
2022-10-16T11:06:17.414Z,0.63
2022-10-16T11:08:53.767Z,0.65
2022-10-16T11:11:32.665Z,0.70
2022-10-16T11:14:06.561Z,0.70
2022-10-16T11:16:41.007Z,0.80
2022-10-16T11:19:20.746Z,0.75
2022-10-16T11:21:58.640Z,0.60
2022-10-16T11:24:42.945Z,0.70
2022-10-16T11:27:17.894Z,0.60
2022-10-16T11:29:55.449Z,0.57
2022-10-16T11:32:31.054Z,0.47
2022-10-16T11:35:10.068Z,0.30
2022-10-16T11:37:44.092Z,0.60
2022-10-16T11:40:24.548Z,0.85
2022-10-16T11:42:59.863Z,0.65
2022-10-16T11:45:36.302Z,0.80
2022-10-16T11:48:16.961Z,0.50
2022-10-16T11:50:52.244Z,0.77
2022-10-16T11:53:39.555Z,0.40
2022-10-16T11:56:10.129Z,0.60
2022-10-16T11:58:51.091Z,0.30
2022-10-16T12:01:26.266Z,0.70
2022-10-16T12:04:16.571Z,0.50
2022-10-16T12:06:49.566Z,0.43
2022-10-16T12:09:24.828Z,0.35
2022-10-16T12:11:55.632Z,0.88
2022-10-16T12:15:11.661Z,0.50
2022-10-16T12:17:37.212Z,0.75
2022-10-16T12:20:24.474Z,0.60
2022-10-16T12:22:56.529Z,0.85
2022-10-16T12:25:29.400Z,0.70
2022-10-16T12:28:04.990Z,0.75
2022-10-16T12:30:36.300Z,0.50
2022-10-16T12:33:07.848Z,0.73
2022-10-16T12:35:45.973Z,0.52
2022-10-16T12:38:20.387Z,0.50
2022-10-16T12:40:59.865Z,0.70
2022-10-16T12:43:39.141Z,0.50
2022-10-16T12:46:24.837Z,0.55
2022-10-16T12:49:08.699Z,0.70
2022-10-16T12:51:39.748Z,0.80
2022-10-16T12:54:16.481Z,0.80
2022-10-16T12:56:57.586Z,0.50
2022-10-16T12:59:40.235Z,0.73
2022-10-16T13:02:43.459Z,0.63
2022-10-16T13:05:26.415Z,0.93
2022-10-16T13:08:06.705Z,0.60
2022-10-16T13:10:42.222Z,1.52
2022-10-16T13:13:49.361Z,1.00
2022-10-16T13:16:26.833Z,0.50
2022-10-16T13:19:12.785Z,0.70
2022-10-16T13:21:49.731Z,0.52
2022-10-16T13:24:32.689Z,0.52
2022-10-16T13:27:11.005Z,1.23
2022-10-16T13:29:42.277Z,0.88
2022-10-16T13:32:17.899Z,0.68
2022-10-16T13:34:49.541Z,1.15
2022-10-16T13:37:22.439Z,1.00
2022-10-16T13:39:52.475Z,0.77
2022-10-16T13:42:30.628Z,0.80
2022-10-16T13:44:59.682Z,0.85
2022-10-16T13:47:31.796Z,0.75
2022-10-16T13:50:05.962Z,0.75
2022-10-16T13:52:36.192Z,0.77
2022-10-16T13:55:07.510Z,0.50
2022-10-16T13:57:37.651Z,0.30
2022-10-16T14:00:21.630Z,0.65
2022-10-16T14:02:59.069Z,0.90
2022-10-16T14:05:28.155Z,0.70
2022-10-16T14:07:58.605Z,0.82
2022-10-16T14:10:32.270Z,0.70
2022-10-16T14:13:03.510Z,0.77
2022-10-16T14:15:34.950Z,0.82
2022-10-16T14:18:07.422Z,1.02
2022-10-16T14:20:37.425Z,0.60
2022-10-16T14:23:22.155Z,0.70
2022-10-16T14:25:51.355Z,0.47
2022-10-16T14:28:22.738Z,0.77
2022-10-16T14:30:54.583Z,0.40
2022-10-16T14:33:27.192Z,0.65
2022-10-16T14:36:05.272Z,0.85
2022-10-16T14:38:35.535Z,0.85
2022-10-16T14:41:06.239Z,0.80
2022-10-16T14:43:38.547Z,0.65
2022-10-16T14:46:13.198Z,0.95
2022-10-16T14:48:45.916Z,0.77
2022-10-16T14:51:16.641Z,1.00
2022-10-16T14:53:45.567Z,1.10
2022-10-16T14:56:21.571Z,0.82
2022-10-16T14:58:51.857Z,0.60
2022-10-16T15:01:21.283Z,0.85
2022-10-16T15:03:53.332Z,0.75
2022-10-16T15:06:22.438Z,0.57
2022-10-16T15:08:51.407Z,1.02
2022-10-16T15:11:21.564Z,0.93
2022-10-16T15:13:50.679Z,0.52
2022-10-16T15:16:19.879Z,0.55
2022-10-16T15:18:48.846Z,1.52
2022-10-16T15:21:26.340Z,0.65
2022-10-16T15:23:55.497Z,0.73
2022-10-16T15:26:24.499Z,1.00
2022-10-16T15:28:53.798Z,0.60
2022-10-16T15:31:23.331Z,0.85
2022-10-16T15:33:54.572Z,0.75
2022-10-16T15:36:34.718Z,0.82
2022-10-16T15:39:03.933Z,0.60
2022-10-16T15:41:32.951Z,0.75
2022-10-16T15:44:01.976Z,0.70
2022-10-16T15:46:31.910Z,0.65
2022-10-16T15:49:01.287Z,0.75
2022-10-16T15:51:33.839Z,0.85
2022-10-16T15:54:03.217Z,0.85
2022-10-16T15:56:34.167Z,0.98
2022-10-16T15:59:03.714Z,1.00
2022-10-16T16:01:35.247Z,0.60
2022-10-16T16:04:10.936Z,0.65
2022-10-16T16:06:46.669Z,0.90
2022-10-16T16:09:15.944Z,1.02
2022-10-16T16:11:44.883Z,0.82
2022-10-16T16:14:15.818Z,0.98
2022-10-16T16:16:44.980Z,0.90
2022-10-16T16:19:13.892Z,1.08
2022-10-16T16:21:42.826Z,0.90
2022-10-16T16:24:13.667Z,0.80
2022-10-16T16:26:44.632Z,0.80
2022-10-16T16:29:16.154Z,1.00
2022-10-16T16:31:45.347Z,1.43
2022-10-16T16:34:14.356Z,0.90
2022-10-16T16:36:43.331Z,1.30
2022-10-16T16:39:13.610Z,0.80
2022-10-16T16:41:42.525Z,0.83
2022-10-16T16:44:12.441Z,0.97
2022-10-16T16:46:43.734Z,1.50
2022-10-16T16:49:14.029Z,1.20
2022-10-16T16:51:43.690Z,0.97
2022-10-16T16:54:14.919Z,1.17
2022-10-16T16:56:45.228Z,0.97
2022-10-16T16:59:16.475Z,1.40
2022-10-16T17:01:45.556Z,1.20
2022-10-16T17:04:16.040Z,1.23
2022-10-16T17:06:45.098Z,1.17
2022-10-16T17:09:16.269Z,1.37
2022-10-16T17:11:46.645Z,1.40
2022-10-16T17:14:16.210Z,1.50
2022-10-16T17:16:46.130Z,1.80
2022-10-16T17:19:17.692Z,1.43
2022-10-16T17:21:46.836Z,1.70
2022-10-16T17:24:18.461Z,1.20
2022-10-16T17:26:49.135Z,1.53
2022-10-16T17:29:19.267Z,1.57
2022-10-16T17:31:50.324Z,1.43
2022-10-16T17:34:19.778Z,1.37
2022-10-16T17:36:48.759Z,1.53
2022-10-16T17:39:19.674Z,2.37
2022-10-16T17:41:49.150Z,1.87
2022-10-16T17:44:20.822Z,2.40
2022-10-16T17:46:51.803Z,2.33
2022-10-16T17:49:21.731Z,2.23
2022-10-16T17:51:52.987Z,2.60
2022-10-16T17:54:23.497Z,2.80
2022-10-16T17:56:52.457Z,2.43
2022-10-16T17:59:23.062Z,2.23
2022-10-16T18:01:52.579Z,2.23
2022-10-16T18:04:21.771Z,1.90
2022-10-16T18:06:50.768Z,2.10
2022-10-16T18:09:22.532Z,2.20
2022-10-16T18:11:59.537Z,2.63
2022-10-16T18:14:30.102Z,2.17
2022-10-16T18:17:00.311Z,1.70
2022-10-16T18:19:29.503Z,1.80
2022-10-16T18:21:59.063Z,2.10
2022-10-16T18:24:30.124Z,2.03
2022-10-16T18:26:59.183Z,1.77
2022-10-16T18:29:29.241Z,2.30
2022-10-16T18:31:58.441Z,2.13
2022-10-16T18:34:27.954Z,2.40
2022-10-16T18:36:57.547Z,2.90
2022-10-16T18:39:28.061Z,2.83
2022-10-16T18:41:59.855Z,2.93
2022-10-16T18:44:31.054Z,2.70
2022-10-16T18:47:00.229Z,2.23
2022-10-16T18:49:29.682Z,2.30
2022-10-16T18:52:00.633Z,4.57
2022-10-16T18:54:31.456Z,6.57
2022-10-16T18:57:00.694Z,9.10
2022-10-16T18:59:30.074Z,3.73
2022-10-16T19:01:59.095Z,2.57
2022-10-16T19:04:28.735Z,2.07
2022-10-16T19:06:57.941Z,1.80
2022-10-16T19:09:26.982Z,2.30
2022-10-16T19:11:59.528Z,2.33
2022-10-16T19:14:30.022Z,2.60
2022-10-16T19:16:59.336Z,2.90
2022-10-16T19:19:28.338Z,2.73
2022-10-16T19:22:11.365Z,3.03
2022-10-16T19:24:40.824Z,3.40
2022-10-16T19:27:11.848Z,3.13
2022-10-16T19:29:40.782Z,2.90
2022-10-16T19:32:10.054Z,2.37
2022-10-16T19:34:38.991Z,2.40
2022-10-16T19:37:10.458Z,2.97
2022-10-16T19:39:39.430Z,2.80
2022-10-16T19:42:09.673Z,2.63
2022-10-16T19:44:39.001Z,2.37
2022-10-16T19:47:07.953Z,2.53
2022-10-16T19:49:37.352Z,2.97
2022-10-16T19:52:06.449Z,2.93
2022-10-16T19:54:36.557Z,2.73
2022-10-16T19:57:05.956Z,3.60
2022-10-16T19:59:38.043Z,2.60
2022-10-16T20:02:10.525Z,3.03
2022-10-16T20:04:39.516Z,2.93
2022-10-16T20:07:08.438Z,2.90
2022-10-16T20:09:37.449Z,3.57
2022-10-16T20:12:06.817Z,3.20
2022-10-16T20:14:37.173Z,3.77
2022-10-16T20:17:06.308Z,5.53
2022-10-16T20:19:35.345Z,6.67
2022-10-16T20:22:04.654Z,6.80
2022-10-16T20:24:33.630Z,7.60
2022-10-16T20:27:02.724Z,7.97
2022-10-16T20:29:31.704Z,7.57
2022-10-16T20:32:02.081Z,5.50
2022-10-16T20:34:31.190Z,6.17
2022-10-16T20:37:00.234Z,5.70
2022-10-16T20:39:29.186Z,7.03
2022-10-16T20:42:00.883Z,7.87
2022-10-16T20:44:29.888Z,7.43
2022-10-16T20:46:58.795Z,6.60
2022-10-16T20:49:40.227Z,6.10
2022-10-16T20:52:09.886Z,5.17
2022-10-16T20:54:38.895Z,5.90
2022-10-16T20:57:07.947Z,5.60
2022-10-16T20:59:37.027Z,5.30
2022-10-16T21:02:11.977Z,4.47
2022-10-16T21:04:44.494Z,4.30
2022-10-16T21:07:13.456Z,4.63
2022-10-16T21:09:43.434Z,3.73
2022-10-16T21:12:12.589Z,4.00
2022-10-16T21:14:46.506Z,4.57
2022-10-16T21:17:25.502Z,4.40
2022-10-16T21:19:55.897Z,4.13
2022-10-16T21:22:25.104Z,3.67
2022-10-16T21:24:54.329Z,4.90
2022-10-16T21:27:23.297Z,4.33
2022-10-16T21:29:54.804Z,5.07
2022-10-16T21:32:23.804Z,4.00
2022-10-16T21:34:52.771Z,3.77
2022-10-16T21:37:23.048Z,4.47
2022-10-16T21:39:51.973Z,3.73
2022-10-16T21:42:20.941Z,3.97
2022-10-16T21:44:49.884Z,4.60
2022-10-16T21:47:19.120Z,4.40
2022-10-16T21:49:48.073Z,4.37
2022-10-16T21:52:17.136Z,4.13
2022-10-16T21:54:47.398Z,3.73
2022-10-16T21:57:16.345Z,3.60
2022-10-16T21:59:45.301Z,4.00
2022-10-16T22:02:14.236Z,3.70
2022-10-16T22:04:43.224Z,3.17
2022-10-16T22:07:12.158Z,3.00
2022-10-16T22:09:41.278Z,3.63
2022-10-16T22:12:11.629Z,4.00
2022-10-16T22:14:41.750Z,3.63
2022-10-16T22:17:10.765Z,3.70
2022-10-16T22:19:39.811Z,3.57
2022-10-16T22:22:08.896Z,3.57
2022-10-16T22:24:38.912Z,3.30
2022-10-16T22:27:07.876Z,3.40
2022-10-16T22:29:38.174Z,3.57
2022-10-16T22:32:07.199Z,3.90
2022-10-16T22:34:36.223Z,3.50
2022-10-16T22:37:05.180Z,2.97
2022-10-16T22:39:34.260Z,3.10
2022-10-16T22:42:03.795Z,2.70
2022-10-16T22:44:32.768Z,3.17
2022-10-16T22:47:03.118Z,3.30
2022-10-16T22:49:32.099Z,2.90
2022-10-16T22:52:02.690Z,3.00
2022-10-16T22:54:31.653Z,2.80
2022-10-16T22:57:00.590Z,3.10
2022-10-16T22:59:29.569Z,3.03
2022-10-16T23:01:58.534Z,2.93
2022-10-16T23:04:28.836Z,2.87
2022-10-16T23:06:59.065Z,2.77
2022-10-16T23:09:28.111Z,2.93
2022-10-16T23:11:57.043Z,2.80
2022-10-16T23:14:26.140Z,2.80
2022-10-16T23:16:55.071Z,2.53
2022-10-16T23:19:24.022Z,2.67
2022-10-16T23:21:54.292Z,2.97
2022-10-16T23:24:23.250Z,2.53
2022-10-16T23:26:52.187Z,3.13
2022-10-16T23:29:21.204Z,2.97
2022-10-16T23:31:50.149Z,2.60
2022-10-16T23:34:19.068Z,2.70
2022-10-16T23:36:48.460Z,3.20
2022-10-16T23:39:19.162Z,2.80
2022-10-16T23:41:48.188Z,2.50
2022-10-16T23:44:17.204Z,2.83
2022-10-16T23:46:46.160Z,2.50
2022-10-16T23:49:15.135Z,2.60
2022-10-16T23:51:44.041Z,3.00
2022-10-16T23:54:13.132Z,2.90
2022-10-16T23:56:43.476Z,2.80
2022-10-16T23:59:12.451Z,2.43
